Time;durP1;ratioP1;P1;durP2;ratioP2;P2;SDS_P1;SDS_P2;PMS_P1;PMS_P2;Temp;Humidity;BMP_temperature;BMP_pressure;BME280_temperature;BME280_humidity;BME280_pressure;Samples;Min_cycle;Max_cycle;Signal;HPM_P1;HPM_P2
2023/10/15 00:01:18;;;;;;;;;;;;;;;;;;5053821;28;19986;-65
2023/10/15 00:03:44;;;;;;;;;;;;;;;;;;5053730;28;19982;-63
2023/10/15 00:06:10;;;;;;;;;;;;;;;;;;5053670;28;20025;-64
2023/10/15 00:08:36;;;;;;;;;;;;;;;;;;5052169;28;19994;-65
2023/10/15 00:11:02;;;;;;;;;;;;;;;;;;5052371;28;20082;-64
2023/10/15 00:13:28;;;;;;;;;;;;;;;;;;5053514;28;20049;-63
2023/10/15 00:15:56;;;;;;;;;;;;;;;;;;5053402;28;19986;-65
2023/10/15 00:18:22;;;;;;;;;;;;;;;;;;5053328;28;20014;-63
2023/10/15 00:20:48;;;;;;;;;;;;;;;;;;5053054;28;20039;-64
2023/10/15 00:23:14;;;;;;;;;;;;;;;;;;5053184;28;19993;-63
2023/10/15 00:25:47;;;;;;;;;;;;;;;;;;5053141;28;20496;-64
2023/10/15 00:28:15;;;;;;;;;;;;;;;;;;5051717;28;19986;-63
2023/10/15 00:30:42;;;;;;;;;;;;;;;;;;5053036;28;19985;-64
2023/10/15 00:33:11;;;;;;;;;;;;;;;;;;5052959;28;20020;-65
2023/10/15 00:35:37;;;;;;;;;;;;;;;;;;5051611;28;20472;-65
2023/10/15 00:38:16;;;;;;;;;;;;;;;;;;5052947;28;20009;-64
2023/10/15 00:40:42;;;;;;;;;;;;;;;;;;5052948;28;19985;-65
2023/10/15 00:43:08;;;;;;;;;;;;;;;;;;5052860;28;19982;-65
2023/10/15 00:45:35;;;;;;;;;;;;;;;;;;5051047;28;20018;-63
2023/10/15 00:48:07;;;;;;;;;;;;;;;;;;5052685;28;20588;-64
2023/10/15 00:50:40;;;;;;;;;;;;;;;;;;5052506;28;19985;-63
2023/10/15 00:53:07;;;;;;;;;;;;;;;;;;5052572;28;20047;-64
2023/10/15 00:55:37;;;;;;;;;;;;;;;;;;5052511;28;19993;-63
2023/10/15 00:58:07;;;;;;;;;;;;;;;;;;5052244;28;20429;-63
2023/10/15 01:00:52;;;;;;;;;;;;;;;;;;5051395;28;19989;-65
2023/10/15 01:03:19;;;;;;;;;;;;;;;;;;5052155;28;19981;-63
2023/10/15 01:05:53;;;;;;;;;;;;;;;;;;5052400;28;20032;-64
2023/10/15 01:08:24;;;;;;;;;;;;;;;;;;5052220;28;20374;-64
2023/10/15 01:10:53;;;;;;;;;;;;;;;;;;5052072;28;19986;-64
2023/10/15 01:13:24;;;;;;;;;;;;;;;;;;5050743;28;19997;-64
2023/10/15 01:15:51;;;;;;;;;;;;;;;;;;5051873;28;19986;-63
2023/10/15 01:18:17;;;;;;;;;;;;;;;;;;5050861;28;20116;-63
2023/10/15 01:20:43;;;;;;;;;;;;;;;;;;5052154;28;20022;-64
2023/10/15 01:23:13;;;;;;;;;;;;;;;;;;5051890;28;19994;-63
2023/10/15 01:25:48;;;;;;;;;;;;;;;;;;5052153;28;19997;-64
2023/10/15 01:28:16;;;;;;;;;;;;;;;;;;5052028;28;20003;-64
2023/10/15 01:30:42;;;;;;;;;;;;;;;;;;5051941;28;20078;-64
2023/10/15 01:33:10;;;;;;;;;;;;;;;;;;5051651;28;20028;-64
2023/10/15 01:35:38;;;;;;;;;;;;;;;;;;5050575;28;20017;-64
2023/10/15 01:38:10;;;;;;;;;;;;;;;;;;5051492;28;20020;-64
2023/10/15 01:40:37;;;;;;;;;;;;;;;;;;5050301;28;20021;-63
2023/10/15 01:43:06;;;;;;;;;;;;;;;;;;5050408;28;19986;-64
2023/10/15 01:45:37;;;;;;;;;;;;;;;;;;5051326;28;20028;-64
2023/10/15 01:48:13;;;;;;;;;;;;;;;;;;5051667;28;19986;-63
2023/10/15 01:50:49;;;;;;;;;;;;;;;;;;5050459;28;20042;-64
2023/10/15 01:53:23;;;;;;;;;;;;;;;;;;5050881;28;20161;-64
2023/10/15 01:55:55;;;;;;;;;;;;;;;;;;5050270;28;19993;-63
2023/10/15 01:58:24;;;;;;;;;;;;;;;;;;5051448;28;20017;-64
2023/10/15 02:00:50;;;;;;;;;;;;;;;;;;5050046;28;19986;-63
2023/10/15 02:03:16;;;;;;;;;;;;;;;;;;5051403;28;20084;-64
2023/10/15 02:05:42;;;;;;;;;;;;;;;;;;5051524;28;20051;-64
2023/10/15 02:08:08;;;;;;;;;;;;;;;;;;5050281;28;20067;-64
2023/10/15 02:10:39;;;;;;;;;;;;;;;;;;5049938;28;20482;-63
2023/10/15 02:13:04;;;;;;;;;;;;;;;;;;5051120;28;19992;-64
2023/10/15 02:15:31;;;;;;;;;;;;;;;;;;5049728;28;20076;-64
2023/10/15 02:17:59;;;;;;;;;;;;;;;;;;5051171;28;20014;-64
2023/10/15 02:23:26;;;;;;;;;;;;;;;;;;5071738;28;20342;-64
2023/10/15 02:26:01;;;;;;;;;;;;;;;;;;5042849;28;20049;-64
2023/10/15 02:28:27;;;;;;;;;;;;;;;;;;5035364;28;20003;-64
2023/10/15 02:31:00;;;;;;;;;;;;;;;;;;5035283;28;19986;-64
2023/10/15 02:33:27;;;;;;;;;;;;;;;;;;5035336;28;20009;-64
2023/10/15 02:35:54;;;;;;;;;;;;;;;;;;5035016;28;20069;-64
2023/10/15 02:38:25;;;;;;;;;;;;;;;;;;5035072;28;20505;-64
2023/10/15 02:41:25;;;;;;;;;;;;;;;;;;5052018;28;19990;-65
2023/10/15 02:43:53;;;;;;;;;;;;;;;;;;5054648;28;19986;-63
2023/10/15 02:46:22;;;;;;;;;;;;;;;;;;5054451;28;20116;-63
2023/10/15 02:48:49;;;;;;;;;;;;;;;;;;5055060;28;20115;-64
2023/10/15 02:51:23;;;;;;;;;;;;;;;;;;5054879;28;20438;-63
2023/10/15 02:54:03;;;;;;;;;;;;;;;;;;5052447;28;19986;-63
2023/10/15 02:56:29;;;;;;;;;;;;;;;;;;5034889;28;20072;-63
2023/10/15 02:58:54;;;;;;;;;;;;;;;;;;5034510;28;20093;-63
2023/10/15 03:01:22;;;;;;;;;;;;;;;;;;5033253;28;19990;-64
2023/10/15 03:03:49;;;;;;;;;;;;;;;;;;5034496;28;20068;-64
2023/10/15 03:06:25;;;;;;;;;;;;;;;;;;5034657;28;20064;-64
2023/10/15 03:08:51;;;;;;;;;;;;;;;;;;5034591;28;20442;-64
2023/10/15 03:11:19;;;;;;;;;;;;;;;;;;5034564;28;19993;-64
2023/10/15 03:13:55;;;;;;;;;;;;;;;;;;5050989;28;19989;-63
2023/10/15 03:16:21;;;;;;;;;;;;;;;;;;5054152;28;19993;-64
2023/10/15 03:18:50;;;;;;;;;;;;;;;;;;5054281;28;20638;-63
2023/10/15 03:21:24;;;;;;;;;;;;;;;;;;5054366;28;20427;-63
2023/10/15 03:23:50;;;;;;;;;;;;;;;;;;5052784;28;19985;-63
2023/10/15 03:26:19;;;;;;;;;;;;;;;;;;5054148;28;20013;-63
2023/10/15 03:28:45;;;;;;;;;;;;;;;;;;5053218;28;19989;-63
2023/10/15 03:31:14;;;;;;;;;;;;;;;;;;5054151;28;20017;-65
2023/10/15 03:33:58;;;;;;;;;;;;;;;;;;5053336;28;19982;-64
2023/10/15 03:36:24;;;;;;;;;;;;;;;;;;5053770;28;20109;-63
2023/10/15 03:38:50;;;;;;;;;;;;;;;;;;5054081;28;20036;-64
2023/10/15 03:41:26;;;;;;;;;;;;;;;;;;5053825;28;19997;-63
2023/10/15 03:43:53;;;;;;;;;;;;;;;;;;5053940;28;19986;-64
2023/10/15 03:46:19;;;;;;;;;;;;;;;;;;5052441;28;20017;-65
2023/10/15 03:48:49;;;;;;;;;;;;;;;;;;5053835;28;20032;-63
2023/10/15 03:51:21;;;;;;;;;;;;;;;;;;5053582;28;20445;-64
2023/10/15 03:53:50;;;;;;;;;;;;;;;;;;5053949;28;20019;-63
2023/10/15 03:56:28;;;;;;;;;;;;;;;;;;5053614;28;20025;-63
2023/10/15 03:58:54;;;;;;;;;;;;;;;;;;5053388;28;20010;-63
2023/10/15 04:01:22;;;;;;;;;;;;;;;;;;5052130;28;20042;-64
2023/10/15 04:03:48;;;;;;;;;;;;;;;;;;5053712;28;20008;-63
2023/10/15 04:06:13;;;;;;;;;;;;;;;;;;5053492;28;20446;-63
2023/10/15 04:08:39;;;;;;;;;;;;;;;;;;5053322;28;20061;-63
2023/10/15 04:11:08;;;;;;;;;;;;;;;;;;5053326;28;19982;-63
2023/10/15 04:13:35;;;;;;;;;;;;;;;;;;5053272;28;20052;-63
2023/10/15 04:16:01;;;;;;;;;;;;;;;;;;5053042;28;19982;-62
2023/10/15 04:18:27;;;;;;;;;;;;;;;;;;5051795;28;20013;-64
2023/10/15 04:20:53;;;;;;;;;;;;;;;;;;5053059;28;20629;-64
2023/10/15 04:23:31;;;;;;;;;;;;;;;;;;5052925;28;19982;-63
2023/10/15 04:25:57;;;;;;;;;;;;;;;;;;5053024;28;19986;-63
2023/10/15 04:28:25;;;;;;;;;;;;;;;;;;5052950;28;20205;-63
2023/10/15 04:30:51;;;;;;;;;;;;;;;;;;5052727;28;20457;-63
2023/10/15 04:33:20;;;;;;;;;;;;;;;;;;5053055;28;20025;-64
2023/10/15 04:35:49;;;;;;;;;;;;;;;;;;5051649;28;20478;-63
2023/10/15 04:38:28;;;;;;;;;;;;;;;;;;5052908;28;20010;-63
2023/10/15 04:43:26;;;;;;;;;;;;;;;;;;5052341;28;19986;-63
2023/10/15 04:45:54;;;;;;;;;;;;;;;;;;5052448;28;20120;-63
2023/10/15 04:48:26;;;;;;;;;;;;;;;;;;5052553;28;19986;-63
2023/10/15 04:50:52;;;;;;;;;;;;;;;;;;5051291;28;19990;-63
2023/10/15 04:55:47;;;;;;;;;;;;;;;;;;5052535;28;19986;-63
2023/10/15 04:58:13;;;;;;;;;;;;;;;;;;5052418;28;20016;-63
2023/10/15 05:00:39;;;;;;;;;;;;;;;;;;5052510;28;19986;-63
2023/10/15 05:03:05;;;;;;;;;;;;;;;;;;5052255;28;20005;-64
2023/10/15 05:05:31;;;;;;;;;;;;;;;;;;5052168;28;20002;-63
2023/10/15 05:07:59;;;;;;;;;;;;;;;;;;5051224;28;19990;-63
2023/10/15 05:10:26;;;;;;;;;;;;;;;;;;5052119;28;19982;-67
2023/10/15 05:12:52;;;;;;;;;;;;;;;;;;5052223;28;20065;-63
2023/10/15 05:15:18;;;;;;;;;;;;;;;;;;5051960;28;20365;-62
2023/10/15 05:17:47;;;;;;;;;;;;;;;;;;5051990;28;20002;-64
2023/10/15 05:20:13;;;;;;;;;;;;;;;;;;5052168;28;19986;-63
2023/10/15 05:22:39;;;;;;;;;;;;;;;;;;5051854;28;20012;-64
2023/10/15 05:25:05;;;;;;;;;;;;;;;;;;5050885;28;20016;-64
2023/10/15 05:27:33;;;;;;;;;;;;;;;;;;5052072;28;19982;-64
2023/10/15 05:29:59;;;;;;;;;;;;;;;;;;5051847;28;20457;-64
2023/10/15 05:32:24;;;;;;;;;;;;;;;;;;5051631;28;20021;-63
2023/10/15 05:34:51;;;;;;;;;;;;;;;;;;5051757;28;20073;-65
2023/10/15 05:37:17;;;;;;;;;;;;;;;;;;5051696;28;20020;-63
2023/10/15 05:39:43;;;;;;;;;;;;;;;;;;5051714;28;20428;-63
2023/10/15 05:42:09;;;;;;;;;;;;;;;;;;5036460;28;20044;-63
2023/10/15 05:44:35;;;;;;;;;;;;;;;;;;5031909;28;20029;-66
2023/10/15 05:47:01;;;;;;;;;;;;;;;;;;5031624;28;20025;-63
2023/10/15 05:49:27;;;;;;;;;;;;;;;;;;5030474;28;19990;-63
2023/10/15 05:51:53;;;;;;;;;;;;;;;;;;5030510;28;19994;-63
2023/10/15 05:54:19;;;;;;;;;;;;;;;;;;5043425;28;19989;-63
2023/10/15 05:56:45;;;;;;;;;;;;;;;;;;5050836;28;20084;-63
2023/10/15 05:59:11;;;;;;;;;;;;;;;;;;5051257;28;20014;-64
2023/10/15 06:01:37;;;;;;;;;;;;;;;;;;5051408;28;19996;-63
2023/10/15 06:04:03;;;;;;;;;;;;;;;;;;5051361;28;19992;-63
2023/10/15 06:06:29;;;;;;;;;;;;;;;;;;5051294;28;20105;-64
2023/10/15 06:08:56;;;;;;;;;;;;;;;;;;5051486;28;20043;-64
2023/10/15 06:11:22;;;;;;;;;;;;;;;;;;5050270;28;19990;-64
2023/10/15 06:13:48;;;;;;;;;;;;;;;;;;5051360;28;19992;-63
2023/10/15 06:16:14;;;;;;;;;;;;;;;;;;5051105;28;20455;-63
2023/10/15 06:18:41;;;;;;;;;;;;;;;;;;5051233;28;20529;-63
2023/10/15 06:21:07;;;;;;;;;;;;;;;;;;5051210;28;19986;-63
2023/10/15 06:23:33;;;;;;;;;;;;;;;;;;5051110;28;20012;-64
2023/10/15 06:25:59;;;;;;;;;;;;;;;;;;5051214;28;19982;-63
2023/10/15 06:28:25;;;;;;;;;;;;;;;;;;5049941;28;19990;-62
2023/10/15 06:30:51;;;;;;;;;;;;;;;;;;5051234;28;20039;-63
2023/10/15 06:33:18;;;;;;;;;;;;;;;;;;5051081;28;20462;-63
2023/10/15 06:35:44;;;;;;;;;;;;;;;;;;5050649;28;19986;-62
2023/10/15 06:38:10;;;;;;;;;;;;;;;;;;5043433;28;20382;-63
2023/10/15 06:40:36;;;;;;;;;;;;;;;;;;5022334;28;20001;-63
2023/10/15 06:43:02;;;;;;;;;;;;;;;;;;5030783;28;20642;-64
2023/10/15 06:45:28;;;;;;;;;;;;;;;;;;5020534;28;20017;-63
2023/10/15 06:47:54;;;;;;;;;;;;;;;;;;5021116;28;19990;-63
2023/10/15 06:50:20;;;;;;;;;;;;;;;;;;5021442;28;20367;-63
2023/10/15 06:52:46;;;;;;;;;;;;;;;;;;5018530;28;20044;-62
2023/10/15 06:55:13;;;;;;;;;;;;;;;;;;5020777;28;19990;-62
2023/10/15 06:57:39;;;;;;;;;;;;;;;;;;5022972;28;20010;-63
2023/10/15 07:00:06;;;;;;;;;;;;;;;;;;5023381;28;20006;-62
2023/10/15 07:02:32;;;;;;;;;;;;;;;;;;5024351;28;19986;-62
2023/10/15 07:05:00;;;;;;;;;;;;;;;;;;5019764;28;20046;-62
2023/10/15 07:07:26;;;;;;;;;;;;;;;;;;5023800;28;20045;-63
2023/10/15 07:09:52;;;;;;;;;;;;;;;;;;5026356;28;19997;-65
2023/10/15 07:12:18;;;;;;;;;;;;;;;;;;5035329;28;19990;-64
2023/10/15 07:14:44;;;;;;;;;;;;;;;;;;5043199;28;20072;-63
2023/10/15 07:17:11;;;;;;;;;;;;;;;;;;5037323;28;20116;-63
2023/10/15 07:19:37;;;;;;;;;;;;;;;;;;5020459;28;20048;-63
2023/10/15 07:22:04;;;;;;;;;;;;;;;;;;5025778;28;19994;-63
2023/10/15 07:24:31;;;;;;;;;;;;;;;;;;5023662;28;19990;-63
2023/10/15 07:26:57;;;;;;;;;;;;;;;;;;5026075;28;20073;-63
2023/10/15 07:29:24;;;;;;;;;;;;;;;;;;5025906;28;20179;-63
2023/10/15 07:31:50;;;;;;;;;;;;;;;;;;5026801;28;20881;-65
2023/10/15 07:34:17;;;;;;;;;;;;;;;;;;5023170;28;21819;-64
2023/10/15 07:36:43;;;;;;;;;;;;;;;;;;5024285;28;19989;-64
2023/10/15 07:39:09;;;;;;;;;;;;;;;;;;5023188;28;20018;-64
2023/10/15 07:41:37;;;;;;;;;;;;;;;;;;5036480;28;20454;-64
2023/10/15 07:44:03;;;;;;;;;;;;;;;;;;5041257;28;19986;-64
2023/10/15 07:46:29;;;;;;;;;;;;;;;;;;5036298;28;20528;-64
2023/10/15 07:48:55;;;;;;;;;;;;;;;;;;5027037;28;20052;-62
2023/10/15 07:51:21;;;;;;;;;;;;;;;;;;5027638;28;19990;-64
2023/10/15 07:53:46;;;;;;;;;;;;;;;;;;5021468;28;20063;-64
2023/10/15 07:56:14;;;;;;;;;;;;;;;;;;5022615;28;20017;-64
2023/10/15 07:58:40;;;;;;;;;;;;;;;;;;5024149;28;20166;-63
2023/10/15 08:01:06;;;;;;;;;;;;;;;;;;5031022;28;19986;-64
2023/10/15 08:03:32;;;;;;;;;;;;;;;;;;5033598;28;20328;-64
2023/10/15 08:05:58;;;;;;;;;;;;;;;;;;5033837;28;20072;-64
2023/10/15 08:08:24;;;;;;;;;;;;;;;;;;5033702;28;19986;-64
2023/10/15 08:10:51;;;;;;;;;;;;;;;;;;5033650;28;19990;-63
2023/10/15 08:13:18;;;;;;;;;;;;;;;;;;5033618;28;20077;-64
2023/10/15 08:15:44;;;;;;;;;;;;;;;;;;5033210;28;20036;-64
2023/10/15 08:18:12;;;;;;;;;;;;;;;;;;5041876;28;20033;-64
2023/10/15 08:20:38;;;;;;;;;;;;;;;;;;5053257;28;19993;-64
2023/10/15 08:23:04;;;;;;;;;;;;;;;;;;5053008;28;20525;-63
2023/10/15 08:25:31;;;;;;;;;;;;;;;;;;5053129;28;20363;-63
2023/10/15 08:27:57;;;;;;;;;;;;;;;;;;5053027;28;20031;-63
2023/10/15 08:30:23;;;;;;;;;;;;;;;;;;5053057;28;19982;-63
2023/10/15 08:32:49;;;;;;;;;;;;;;;;;;5051733;28;19986;-63
2023/10/15 08:35:15;;;;;;;;;;;;;;;;;;5053017;28;20032;-64
2023/10/15 08:37:41;;;;;;;;;;;;;;;;;;5052904;28;20006;-64
2023/10/15 08:40:07;;;;;;;;;;;;;;;;;;5053047;28;20032;-64
2023/10/15 08:42:34;;;;;;;;;;;;;;;;;;5052787;28;20005;-64
2023/10/15 08:45:04;;;;;;;;;;;;;;;;;;5052407;28;19981;-64
2023/10/15 08:47:30;;;;;;;;;;;;;;;;;;5052886;28;19986;-64
2023/10/15 08:49:59;;;;;;;;;;;;;;;;;;5052737;28;19982;-64
2023/10/15 08:52:26;;;;;;;;;;;;;;;;;;5051354;28;19990;-63
2023/10/15 08:54:53;;;;;;;;;;;;;;;;;;5052273;28;20435;-64
2023/10/15 08:57:19;;;;;;;;;;;;;;;;;;5052472;28;19994;-64
2023/10/15 08:59:45;;;;;;;;;;;;;;;;;;5052772;28;20509;-64
2023/10/15 09:02:13;;;;;;;;;;;;;;;;;;5052268;28;20029;-64
2023/10/15 09:04:39;;;;;;;;;;;;;;;;;;5052419;28;20859;-64
2023/10/15 09:07:05;;;;;;;;;;;;;;;;;;5051210;28;20016;-62
2023/10/15 09:09:34;;;;;;;;;;;;;;;;;;5052226;28;20085;-64
2023/10/15 09:12:00;;;;;;;;;;;;;;;;;;5052034;28;19986;-64
2023/10/15 09:14:26;;;;;;;;;;;;;;;;;;5052238;28;20039;-63
2023/10/15 09:16:52;;;;;;;;;;;;;;;;;;5052167;28;19985;-64
2023/10/15 09:19:18;;;;;;;;;;;;;;;;;;5052095;28;20026;-64
2023/10/15 09:21:44;;;;;;;;;;;;;;;;;;5052156;28;19989;-64
2023/10/15 09:24:10;;;;;;;;;;;;;;;;;;5050743;28;19997;-64
2023/10/15 09:26:36;;;;;;;;;;;;;;;;;;5051827;28;20206;-64
2023/10/15 09:29:02;;;;;;;;;;;;;;;;;;5051877;28;20017;-64
2023/10/15 09:31:28;;;;;;;;;;;;;;;;;;5051164;28;20043;-63
2023/10/15 09:33:54;;;;;;;;;;;;;;;;;;5051862;28;19985;-64
2023/10/15 09:36:20;;;;;;;;;;;;;;;;;;5051610;28;19985;-63
2023/10/15 09:38:46;;;;;;;;;;;;;;;;;;5051989;28;20112;-63
2023/10/15 09:41:12;;;;;;;;;;;;;;;;;;5050574;28;19997;-63
2023/10/15 09:43:38;;;;;;;;;;;;;;;;;;5051724;28;20036;-65
2023/10/15 09:46:05;;;;;;;;;;;;;;;;;;5051252;28;20022;-64
2023/10/15 09:48:36;;;;;;;;;;;;;;;;;;5051703;28;20450;-64
2023/10/15 09:51:04;;;;;;;;;;;;;;;;;;5051762;28;20047;-64
2023/10/15 09:53:30;;;;;;;;;;;;;;;;;;5051563;28;19985;-63
2023/10/15 09:55:57;;;;;;;;;;;;;;;;;;5050254;28;20038;-64
2023/10/15 09:58:24;;;;;;;;;;;;;;;;;;5051495;28;20068;-63
2023/10/15 10:03:19;;;;;;;;;;;;;;;;;;5051631;28;19988;-64
2023/10/15 10:05:45;;;;;;;;;;;;;;;;;;5051489;28;19998;-63
2023/10/15 10:08:11;;;;;;;;;;;;;;;;;;5051579;28;19982;-64
2023/10/15 10:10:37;;;;;;;;;;;;;;;;;;5051248;28;19989;-64
2023/10/15 10:13:03;;;;;;;;;;;;;;;;;;5046246;28;19992;-65
2023/10/15 10:15:29;;;;;;;;;;;;;;;;;;5031612;28;20350;-64
2023/10/15 10:17:55;;;;;;;;;;;;;;;;;;5031382;28;20053;-64
2023/10/15 10:20:21;;;;;;;;;;;;;;;;;;5031296;28;19990;-64
2023/10/15 10:22:47;;;;;;;;;;;;;;;;;;5031448;28;19986;-63
2023/10/15 10:25:13;;;;;;;;;;;;;;;;;;5031307;28;20029;-64
2023/10/15 10:27:39;;;;;;;;;;;;;;;;;;5031309;28;20073;-64
2023/10/15 10:30:04;;;;;;;;;;;;;;;;;;5031521;28;19987;-63
2023/10/15 10:32:30;;;;;;;;;;;;;;;;;;5045925;28;19990;-64
2023/10/15 10:34:56;;;;;;;;;;;;;;;;;;5051152;28;19982;-63
2023/10/15 10:37:23;;;;;;;;;;;;;;;;;;5051031;28;20077;-64
2023/10/15 10:39:49;;;;;;;;;;;;;;;;;;5051116;28;19997;-64
2023/10/15 10:42:15;;;;;;;;;;;;;;;;;;5053238;28;20124;-63
2023/10/15 10:44:41;;;;;;;;;;;;;;;;;;5055143;28;20073;-64
2023/10/15 10:47:07;;;;;;;;;;;;;;;;;;5054927;28;20068;-63
2023/10/15 10:49:34;;;;;;;;;;;;;;;;;;5053701;28;19990;-65
2023/10/15 10:52:00;;;;;;;;;;;;;;;;;;5054943;28;19986;-63
2023/10/15 10:54:26;;;;;;;;;;;;;;;;;;5054864;28;19990;-64
2023/10/15 10:56:52;;;;;;;;;;;;;;;;;;5055051;28;19990;-64
2023/10/15 10:59:18;;;;;;;;;;;;;;;;;;5054771;28;20014;-64
2023/10/15 11:01:45;;;;;;;;;;;;;;;;;;5055010;28;20438;-64
2023/10/15 11:04:13;;;;;;;;;;;;;;;;;;5045738;28;19998;-63
2023/10/15 11:06:42;;;;;;;;;;;;;;;;;;5049521;28;20005;-64
2023/10/15 11:09:19;;;;;;;;;;;;;;;;;;5054371;28;19990;-63
2023/10/15 11:11:48;;;;;;;;;;;;;;;;;;5050615;28;19992;-63
2023/10/15 11:14:14;;;;;;;;;;;;;;;;;;5054704;28;20062;-63
2023/10/15 11:16:43;;;;;;;;;;;;;;;;;;5074443;28;20591;-63
2023/10/15 11:19:09;;;;;;;;;;;;;;;;;;5073246;28;20010;-64
2023/10/15 11:21:35;;;;;;;;;;;;;;;;;;5053037;28;20080;-64
2023/10/15 11:24:01;;;;;;;;;;;;;;;;;;5054284;28;19985;-63
2023/10/15 11:26:31;;;;;;;;;;;;;;;;;;5054119;28;19990;-63
2023/10/15 11:28:57;;;;;;;;;;;;;;;;;;5054295;28;20035;-63
2023/10/15 11:31:22;;;;;;;;;;;;;;;;;;5053254;28;20071;-64
2023/10/15 11:33:48;;;;;;;;;;;;;;;;;;5054308;28;20052;-64
2023/10/15 11:36:17;;;;;;;;;;;;;;;;;;5053968;28;20005;-63
2023/10/15 11:38:43;;;;;;;;;;;;;;;;;;5054059;28;20027;-64
2023/10/15 11:41:12;;;;;;;;;;;;;;;;;;5052830;28;20500;-64
2023/10/15 11:43:38;;;;;;;;;;;;;;;;;;5054006;28;20229;-64
2023/10/15 11:46:10;;;;;;;;;;;;;;;;;;5053394;28;20501;-63
2023/10/15 11:48:37;;;;;;;;;;;;;;;;;;5047172;28;20044;-63
2023/10/15 11:51:06;;;;;;;;;;;;;;;;;;5034043;28;19997;-64
2023/10/15 11:53:33;;;;;;;;;;;;;;;;;;5039513;28;20009;-62
2023/10/15 11:55:59;;;;;;;;;;;;;;;;;;5047716;28;20077;-63
2023/10/15 11:58:31;;;;;;;;;;;;;;;;;;5041865;28;20095;-63
2023/10/15 12:00:58;;;;;;;;;;;;;;;;;;5043348;28;19992;-63
2023/10/15 12:03:24;;;;;;;;;;;;;;;;;;5034777;28;20108;-63
2023/10/15 12:05:51;;;;;;;;;;;;;;;;;;5043638;28;20005;-63
2023/10/15 12:08:21;;;;;;;;;;;;;;;;;;5053561;28;19992;-63
2023/10/15 12:10:47;;;;;;;;;;;;;;;;;;5053232;28;19982;-63
2023/10/15 12:13:16;;;;;;;;;;;;;;;;;;5053470;28;20061;-63
2023/10/15 12:15:42;;;;;;;;;;;;;;;;;;5051394;28;19982;-64
2023/10/15 12:18:08;;;;;;;;;;;;;;;;;;5053425;28;20018;-66
2023/10/15 12:20:34;;;;;;;;;;;;;;;;;;5053319;28;19986;-64
2023/10/15 12:23:00;;;;;;;;;;;;;;;;;;5052846;28;20123;-69
2023/10/15 12:25:26;;;;;;;;;;;;;;;;;;5053136;28;19981;-68
2023/10/15 12:27:52;;;;;;;;;;;;;;;;;;5052926;28;19990;-68
2023/10/15 12:30:27;;;;;;;;;;;;;;;;;;5053247;28;20374;-68
2023/10/15 12:32:58;;;;;;;;;;;;;;;;;;5051832;28;20011;-69
2023/10/15 12:35:24;;;;;;;;;;;;;;;;;;5051450;28;19990;-69
2023/10/15 12:37:54;;;;;;;;;;;;;;;;;;5052862;28;20104;-69
2023/10/15 12:40:29;;;;;;;;;;;;;;;;;;5051430;28;20032;-69
2023/10/15 12:42:55;;;;;;;;;;;;;;;;;;5052893;28;20338;-69
2023/10/15 12:45:21;;;;;;;;;;;;;;;;;;5052405;28;20024;-68
2023/10/15 12:47:47;;;;;;;;;;;;;;;;;;5052820;28;20009;-69
2023/10/15 12:50:17;;;;;;;;;;;;;;;;;;5052853;28;20025;-69
2023/10/15 12:52:44;;;;;;;;;;;;;;;;;;5051382;28;19993;-69
2023/10/15 12:55:10;;;;;;;;;;;;;;;;;;5052527;28;20035;-69
2023/10/15 12:57:36;;;;;;;;;;;;;;;;;;5032271;28;19993;-69
2023/10/15 13:00:16;;;;;;;;;;;;;;;;;;5032594;28;20085;-70
2023/10/15 13:02:43;;;;;;;;;;;;;;;;;;5032414;28;20031;-70
2023/10/15 13:05:09;;;;;;;;;;;;;;;;;;5036092;28;20009;-70
2023/10/15 13:07:35;;;;;;;;;;;;;;;;;;5036146;28;19986;-69
2023/10/15 13:10:01;;;;;;;;;;;;;;;;;;5052566;28;20009;-71
2023/10/15 13:12:27;;;;;;;;;;;;;;;;;;5052296;28;20013;-69
2023/10/15 13:14:53;;;;;;;;;;;;;;;;;;5052079;28;19990;-69
2023/10/15 13:17:19;;;;;;;;;;;;;;;;;;5052214;28;20470;-69
2023/10/15 13:19:45;;;;;;;;;;;;;;;;;;5051936;28;20071;-69
2023/10/15 13:22:11;;;;;;;;;;;;;;;;;;5051018;28;20088;-70
2023/10/15 13:24:38;;;;;;;;;;;;;;;;;;5050753;28;20036;-71
2023/10/15 13:27:05;;;;;;;;;;;;;;;;;;5051773;28;19993;-69
2023/10/15 13:29:31;;;;;;;;;;;;;;;;;;5051782;28;19997;-69
2023/10/15 13:31:57;;;;;;;;;;;;;;;;;;5052025;28;19986;-70
2023/10/15 13:34:23;;;;;;;;;;;;;;;;;;5050604;28;19990;-69
2023/10/15 13:36:49;;;;;;;;;;;;;;;;;;5051877;28;19985;-70
2023/10/15 13:39:28;;;;;;;;;;;;;;;;;;5051781;28;20013;-70
2023/10/15 13:41:54;;;;;;;;;;;;;;;;;;5041095;28;19996;-72
2023/10/15 13:44:20;;;;;;;;;;;;;;;;;;5037682;28;19993;-70
2023/10/15 13:46:47;;;;;;;;;;;;;;;;;;5045402;28;20042;-70
2023/10/15 13:49:13;;;;;;;;;;;;;;;;;;5045377;28;19990;-71
2023/10/15 13:51:39;;;;;;;;;;;;;;;;;;5036996;28;20001;-71
2023/10/15 13:54:05;;;;;;;;;;;;;;;;;;5033635;28;19986;-71
2023/10/15 13:56:31;;;;;;;;;;;;;;;;;;5043908;28;19998;-71
2023/10/15 13:58:57;;;;;;;;;;;;;;;;;;5047004;28;20016;-70
2023/10/15 14:01:23;;;;;;;;;;;;;;;;;;5051415;28;20036;-71
2023/10/15 14:03:51;;;;;;;;;;;;;;;;;;5051308;28;20047;-71
2023/10/15 14:06:18;;;;;;;;;;;;;;;;;;5050095;28;20101;-71
2023/10/15 14:08:44;;;;;;;;;;;;;;;;;;5051349;28;19982;-73
2023/10/15 14:11:10;;;;;;;;;;;;;;;;;;5051317;28;20007;-71
2023/10/15 14:13:36;;;;;;;;;;;;;;;;;;5051255;28;20385;-71
2023/10/15 14:16:03;;;;;;;;;;;;;;;;;;5052493;28;20025;-71
2023/10/15 14:18:29;;;;;;;;;;;;;;;;;;5057744;28;20013;-67
2023/10/15 14:20:56;;;;;;;;;;;;;;;;;;5057796;28;20347;-67
2023/10/15 14:23:23;;;;;;;;;;;;;;;;;;5056669;28;20462;-66
2023/10/15 14:25:49;;;;;;;;;;;;;;;;;;5057738;28;20043;-66
2023/10/15 14:28:15;;;;;;;;;;;;;;;;;;5057709;28;19986;-66
2023/10/15 14:30:41;;;;;;;;;;;;;;;;;;5057727;28;20068;-66
2023/10/15 14:33:07;;;;;;;;;;;;;;;;;;5057769;28;20402;-67
2023/10/15 14:35:33;;;;;;;;;;;;;;;;;;5058067;28;19985;-65
2023/10/15 14:37:59;;;;;;;;;;;;;;;;;;5056710;28;20390;-68
2023/10/15 14:40:25;;;;;;;;;;;;;;;;;;5057800;28;20072;-67
2023/10/15 14:42:51;;;;;;;;;;;;;;;;;;5057781;28;19990;-68
2023/10/15 14:45:17;;;;;;;;;;;;;;;;;;5057340;28;19997;-67
2023/10/15 14:47:43;;;;;;;;;;;;;;;;;;5057768;28;20449;-67
2023/10/15 14:50:10;;;;;;;;;;;;;;;;;;5056405;28;20358;-65
2023/10/15 14:52:36;;;;;;;;;;;;;;;;;;5057722;28;20043;-67
2023/10/15 14:55:02;;;;;;;;;;;;;;;;;;5056352;28;20080;-66
2023/10/15 14:57:31;;;;;;;;;;;;;;;;;;5057327;28;20043;-69
2023/10/15 14:59:57;;;;;;;;;;;;;;;;;;5056303;28;20001;-66
2023/10/15 15:02:23;;;;;;;;;;;;;;;;;;5054379;28;19990;-66
2023/10/15 15:04:53;;;;;;;;;;;;;;;;;;5056870;28;20055;-68
2023/10/15 15:07:19;;;;;;;;;;;;;;;;;;5057624;28;20000;-66
2023/10/15 15:09:44;;;;;;;;;;;;;;;;;;5056118;28;20081;-67
2023/10/15 15:12:11;;;;;;;;;;;;;;;;;;5057615;28;19989;-63
2023/10/15 15:14:37;;;;;;;;;;;;;;;;;;5057450;28;20458;-65
2023/10/15 15:17:04;;;;;;;;;;;;;;;;;;5057450;28;20009;-65
2023/10/15 15:19:30;;;;;;;;;;;;;;;;;;5057426;28;20446;-65
2023/10/15 15:21:57;;;;;;;;;;;;;;;;;;5056213;28;19990;-69
2023/10/15 15:24:24;;;;;;;;;;;;;;;;;;5056152;28;20088;-65
2023/10/15 15:26:50;;;;;;;;;;;;;;;;;;5057439;28;20009;-68
2023/10/15 15:29:16;;;;;;;;;;;;;;;;;;5054348;28;20560;-66
2023/10/15 15:31:42;;;;;;;;;;;;;;;;;;5054219;28;20008;-66
2023/10/15 15:34:08;;;;;;;;;;;;;;;;;;5054348;28;19981;-67
2023/10/15 15:36:34;;;;;;;;;;;;;;;;;;5054205;28;19986;-66
2023/10/15 15:39:03;;;;;;;;;;;;;;;;;;5049369;28;20010;-67
2023/10/15 15:41:32;;;;;;;;;;;;;;;;;;5051044;28;20088;-65
2023/10/15 15:44:00;;;;;;;;;;;;;;;;;;5046775;28;20339;-65
2023/10/15 15:46:27;;;;;;;;;;;;;;;;;;5045584;28;20383;-66
2023/10/15 15:48:53;;;;;;;;;;;;;;;;;;5039290;28;20115;-65
2023/10/15 15:51:19;;;;;;;;;;;;;;;;;;5045634;28;20043;-65
2023/10/15 15:53:45;;;;;;;;;;;;;;;;;;5044215;28;19985;-68
2023/10/15 15:56:11;;;;;;;;;;;;;;;;;;5034642;28;20503;-65
2023/10/15 15:58:37;;;;;;;;;;;;;;;;;;5051644;28;20045;-66
2023/10/15 16:01:04;;;;;;;;;;;;;;;;;;5034398;28;19990;-66
2023/10/15 16:03:32;;;;;;;;;;;;;;;;;;5053440;28;20468;-67
2023/10/15 16:05:58;;;;;;;;;;;;;;;;;;5053409;28;20489;-67
2023/10/15 16:08:24;;;;;;;;;;;;;;;;;;5053545;28;19986;-68
2023/10/15 16:10:50;;;;;;;;;;;;;;;;;;5053072;28;19989;-67
2023/10/15 16:13:16;;;;;;;;;;;;;;;;;;5040464;28;20029;-67
2023/10/15 16:15:42;;;;;;;;;;;;;;;;;;5040268;28;19989;-66
2023/10/15 16:18:07;;;;;;;;;;;;;;;;;;5053226;28;20057;-66
2023/10/15 16:20:33;;;;;;;;;;;;;;;;;;5053011;28;19986;-65
2023/10/15 16:23:00;;;;;;;;;;;;;;;;;;5053348;28;19989;-66
2023/10/15 16:25:26;;;;;;;;;;;;;;;;;;5053076;28;20366;-65
2023/10/15 16:27:52;;;;;;;;;;;;;;;;;;5053172;28;20001;-65
2023/10/15 16:30:19;;;;;;;;;;;;;;;;;;5052863;28;20013;-64
2023/10/15 16:32:45;;;;;;;;;;;;;;;;;;5052454;28;19990;-65
2023/10/15 16:35:12;;;;;;;;;;;;;;;;;;5052906;28;19986;-65
2023/10/15 16:37:38;;;;;;;;;;;;;;;;;;5052260;28;20012;-68
2023/10/15 16:40:04;;;;;;;;;;;;;;;;;;5039837;28;20485;-66
2023/10/15 16:42:30;;;;;;;;;;;;;;;;;;5050020;28;19994;-65
2023/10/15 16:44:55;;;;;;;;;;;;;;;;;;5052736;28;20036;-63
2023/10/15 16:47:21;;;;;;;;;;;;;;;;;;5051283;28;20023;-65
2023/10/15 16:49:47;;;;;;;;;;;;;;;;;;5052439;28;19986;-67
2023/10/15 16:52:13;;;;;;;;;;;;;;;;;;5052549;28;19982;-65
2023/10/15 16:54:39;;;;;;;;;;;;;;;;;;5048541;28;19994;-65
2023/10/15 16:57:05;;;;;;;;;;;;;;;;;;5044875;28;20458;-72